Dunham Hollow, New York
Current Conditions -  °F | °C
As of 11:51 PM on Tuesday 25 Nov 2014 (Local Time) from KALB Reporting Station
Overcast Overcast  
Wind Chill: 34°   Ceiling: 25000
Heat Index: 40°   Visibility: 10mi
Dew Point: 29°   Wind: 8mph
Humidity: 65%   Direction: 320°NW
Pressure: 30.17"   Gusts: NA
Location:  42.6497°N, 73.5273°W
Report Text: KALB 260451Z 32007KT 10SM OVC250 04/M02 A3017 RMK AO2 SLP219 T00441017 401670017
Loading
Personal Weather Stations






























Interactive Weather Map New forecast layout! Learn more

10-Day Weather Forecast

Advertisements
Track Severe Weather on mobile